<?xml version="1.0" encoding="utf-8"?>
<gpx xmlns:xsi="http://www.w3.org/2001/XMLSchema-instance" xmlns:xsd="http://www.w3.org/2001/XMLSchema" version="1.1" creator="Shapelink.com" xmlns="http://www.topografix.com/GPX/1/1" xmlns:gpxtpx="http://www.garmin.com/xmlschemas/TrackPointExtension/v1">
  <metadata>
    <name>Radfahren 4.87 km, 2011-05-22</name>
    <desc></desc>
    <author><name>Jessica Ternander</name></author> 
    <time>2011-05-22T08:48:16Z</time>
  </metadata>
  <trk>
    <name>Radfahren 4.87 km, 2011-05-22</name>
    <trkseg>
      <trkpt lat="59.2992667" lon="18.5074699">
        <ele>33.3029</ele>
        <time>2011-05-22T08:48:16Z</time>
      </trkpt>
      <trkpt lat="59.2993577" lon="18.5074348">
        <ele>32.8223</ele>
        <time>2011-05-22T08:48:22Z</time>
      </trkpt>
      <trkpt lat="59.2994001" lon="18.5073022">
        <ele>33.3029</ele>
        <time>2011-05-22T08:48:26Z</time>
      </trkpt>
      <trkpt lat="59.2993894" lon="18.506968">
        <ele>32.8223</ele>
        <time>2011-05-22T08:48:32Z</time>
      </trkpt>
      <trkpt lat="59.2993418" lon="18.5065231">
        <ele>30.8995</ele>
        <time>2011-05-22T08:48:38Z</time>
      </trkpt>
      <trkpt lat="59.2992484" lon="18.5058179">
        <ele>31.8607</ele>
        <time>2011-05-22T08:48:47Z</time>
      </trkpt>
      <trkpt lat="59.2992146" lon="18.5055147">
        <ele>32.3416</ele>
        <time>2011-05-22T08:48:51Z</time>
      </trkpt>
      <trkpt lat="59.2992764" lon="18.5052827">
        <ele>33.3029</ele>
        <time>2011-05-22T08:48:55Z</time>
      </trkpt>
      <trkpt lat="59.2993452" lon="18.5052274">
        <ele>33.7834</ele>
        <time>2011-05-22T08:48:57Z</time>
      </trkpt>
      <trkpt lat="59.2995608" lon="18.5049454">
        <ele>33.7834</ele>
        <time>2011-05-22T08:49:04Z</time>
      </trkpt>
      <trkpt lat="59.2996459" lon="18.5046461">
        <ele>34.2642</ele>
        <time>2011-05-22T08:49:10Z</time>
      </trkpt>
      <trkpt lat="59.2996452" lon="18.5046292">
        <ele>34.2642</ele>
        <time>2011-05-22T08:49:16Z</time>
      </trkpt>
      <trkpt lat="59.2996777" lon="18.5045146">
        <ele>33.7834</ele>
        <time>2011-05-22T08:49:22Z</time>
      </trkpt>
      <trkpt lat="59.2997627" lon="18.5042062">
        <ele>35.2255</ele>
        <time>2011-05-22T08:49:28Z</time>
      </trkpt>
      <trkpt lat="59.2999068" lon="18.5036885">
        <ele>36.6675</ele>
        <time>2011-05-22T08:49:36Z</time>
      </trkpt>
      <trkpt lat="59.300066" lon="18.5032241">
        <ele>38.1094</ele>
        <time>2011-05-22T08:49:44Z</time>
      </trkpt>
      <trkpt lat="59.300212" lon="18.5028245">
        <ele>40.5128</ele>
        <time>2011-05-22T08:49:51Z</time>
      </trkpt>
      <trkpt lat="59.300317" lon="18.5023752">
        <ele>36.6675</ele>
        <time>2011-05-22T08:49:57Z</time>
      </trkpt>
      <trkpt lat="59.300332" lon="18.502288">
        <ele>36.1868</ele>
        <time>2011-05-22T08:49:58Z</time>
      </trkpt>
      <trkpt lat="59.3004231" lon="18.5017439">
        <ele>33.3029</ele>
        <time>2011-05-22T08:50:04Z</time>
      </trkpt>
      <trkpt lat="59.3005265" lon="18.501203">
        <ele>32.3416</ele>
        <time>2011-05-22T08:50:11Z</time>
      </trkpt>
      <trkpt lat="59.3006371" lon="18.5005926">
        <ele>32.3416</ele>
        <time>2011-05-22T08:50:18Z</time>
      </trkpt>
      <trkpt lat="59.3007326" lon="18.5000336">
        <ele>32.3416</ele>
        <time>2011-05-22T08:50:25Z</time>
      </trkpt>
      <trkpt lat="59.3008728" lon="18.4992641">
        <ele>30.4188</ele>
        <time>2011-05-22T08:50:34Z</time>
      </trkpt>
      <trkpt lat="59.3009697" lon="18.4986265">
        <ele>28.4962</ele>
        <time>2011-05-22T08:50:41Z</time>
      </trkpt>
      <trkpt lat="59.301005" lon="18.4984192">
        <ele>28.4962</ele>
        <time>2011-05-22T08:50:43Z</time>
      </trkpt>
      <trkpt lat="59.3010786" lon="18.4981279">
        <ele>28.0155</ele>
        <time>2011-05-22T08:50:46Z</time>
      </trkpt>
      <trkpt lat="59.3012904" lon="18.4977247">
        <ele>26.5736</ele>
        <time>2011-05-22T08:50:52Z</time>
      </trkpt>
      <trkpt lat="59.3014474" lon="18.4975073">
        <ele>26.0929</ele>
        <time>2011-05-22T08:50:56Z</time>
      </trkpt>
      <trkpt lat="59.3015343" lon="18.4975314">
        <ele>24.1703</ele>
        <time>2011-05-22T08:51:00Z</time>
      </trkpt>
      <trkpt lat="59.3015485" lon="18.4975825">
        <ele>23.6896</ele>
        <time>2011-05-22T08:51:01Z</time>
      </trkpt>
      <trkpt lat="59.3016245" lon="18.4979608">
        <ele>19.3638</ele>
        <time>2011-05-22T08:51:08Z</time>
      </trkpt>
      <trkpt lat="59.301752" lon="18.4984622">
        <ele>17.4412</ele>
        <time>2011-05-22T08:51:16Z</time>
      </trkpt>
      <trkpt lat="59.3017873" lon="18.4989371">
        <ele>15.999</ele>
        <time>2011-05-22T08:51:22Z</time>
      </trkpt>
      <trkpt lat="59.301793" lon="18.4990161">
        <ele>15.0377</ele>
        <time>2011-05-22T08:51:23Z</time>
      </trkpt>
      <trkpt lat="59.3019189" lon="18.4995998">
        <ele>12.1538</ele>
        <time>2011-05-22T08:51:30Z</time>
      </trkpt>
      <trkpt lat="59.3020901" lon="18.5002792">
        <ele>8.30859</ele>
        <time>2011-05-22T08:51:37Z</time>
      </trkpt>
      <trkpt lat="59.3023252" lon="18.5011138">
        <ele>4.94385</ele>
        <time>2011-05-22T08:51:45Z</time>
      </trkpt>
      <trkpt lat="59.3024873" lon="18.5017334">
        <ele>3.50195</ele>
        <time>2011-05-22T08:51:51Z</time>
      </trkpt>
      <trkpt lat="59.3026286" lon="18.5020265">
        <ele>4.46326</ele>
        <time>2011-05-22T08:51:55Z</time>
      </trkpt>
      <trkpt lat="59.3027315" lon="18.5020656">
        <ele>5.90527</ele>
        <time>2011-05-22T08:51:59Z</time>
      </trkpt>
      <trkpt lat="59.3027589" lon="18.5019857">
        <ele>6.38586</ele>
        <time>2011-05-22T08:52:01Z</time>
      </trkpt>
      <trkpt lat="59.302831" lon="18.5015802">
        <ele>7.34717</ele>
        <time>2011-05-22T08:52:08Z</time>
      </trkpt>
      <trkpt lat="59.302875" lon="18.5012069">
        <ele>8.30859</ele>
        <time>2011-05-22T08:52:14Z</time>
      </trkpt>
      <trkpt lat="59.3029744" lon="18.5005616">
        <ele>9.2699</ele>
        <time>2011-05-22T08:52:21Z</time>
      </trkpt>
      <trkpt lat="59.3030745" lon="18.4998995">
        <ele>8.30859</ele>
        <time>2011-05-22T08:52:27Z</time>
      </trkpt>
      <trkpt lat="59.303154" lon="18.4995323">
        <ele>8.30859</ele>
        <time>2011-05-22T08:52:30Z</time>
      </trkpt>
      <trkpt lat="59.3033391" lon="18.4983088">
        <ele>7.82788</ele>
        <time>2011-05-22T08:52:39Z</time>
      </trkpt>
      <trkpt lat="59.3035216" lon="18.4970243">
        <ele>7.82788</ele>
        <time>2011-05-22T08:52:49Z</time>
      </trkpt>
      <trkpt lat="59.3036121" lon="18.4963361">
        <ele>7.82788</ele>
        <time>2011-05-22T08:52:55Z</time>
      </trkpt>
      <trkpt lat="59.3037369" lon="18.4953852">
        <ele>8.78918</ele>
        <time>2011-05-22T08:53:04Z</time>
      </trkpt>
      <trkpt lat="59.3038038" lon="18.4951001">
        <ele>8.78918</ele>
        <time>2011-05-22T08:53:07Z</time>
      </trkpt>
      <trkpt lat="59.3039889" lon="18.4945176">
        <ele>9.2699</ele>
        <time>2011-05-22T08:53:14Z</time>
      </trkpt>
      <trkpt lat="59.3041452" lon="18.4939343">
        <ele>9.75061</ele>
        <time>2011-05-22T08:53:22Z</time>
      </trkpt>
      <trkpt lat="59.3042809" lon="18.493558">
        <ele>12.1538</ele>
        <time>2011-05-22T08:53:29Z</time>
      </trkpt>
      <trkpt lat="59.3043746" lon="18.4931511">
        <ele>11.1925</ele>
        <time>2011-05-22T08:53:35Z</time>
      </trkpt>
      <trkpt lat="59.3044822" lon="18.4925802">
        <ele>9.75061</ele>
        <time>2011-05-22T08:53:42Z</time>
      </trkpt>
      <trkpt lat="59.3045925" lon="18.4919425">
        <ele>8.78918</ele>
        <time>2011-05-22T08:53:50Z</time>
      </trkpt>
      <trkpt lat="59.3046534" lon="18.4913546">
        <ele>8.78918</ele>
        <time>2011-05-22T08:53:58Z</time>
      </trkpt>
      <trkpt lat="59.3046832" lon="18.4908328">
        <ele>8.78918</ele>
        <time>2011-05-22T08:54:06Z</time>
      </trkpt>
      <trkpt lat="59.3047127" lon="18.4903284">
        <ele>7.82788</ele>
        <time>2011-05-22T08:54:13Z</time>
      </trkpt>
      <trkpt lat="59.304734" lon="18.4899807">
        <ele>7.82788</ele>
        <time>2011-05-22T08:54:17Z</time>
      </trkpt>
      <trkpt lat="59.3047725" lon="18.4896622">
        <ele>7.82788</ele>
        <time>2011-05-22T08:54:21Z</time>
      </trkpt>
      <trkpt lat="59.3047871" lon="18.4894312">
        <ele>7.82788</ele>
        <time>2011-05-22T08:54:24Z</time>
      </trkpt>
      <trkpt lat="59.3048016" lon="18.4887463">
        <ele>7.82788</ele>
        <time>2011-05-22T08:54:32Z</time>
      </trkpt>
      <trkpt lat="59.3048158" lon="18.4884854">
        <ele>8.30859</ele>
        <time>2011-05-22T08:54:35Z</time>
      </trkpt>
      <trkpt lat="59.3048171" lon="18.4879818">
        <ele>9.2699</ele>
        <time>2011-05-22T08:54:41Z</time>
      </trkpt>
      <trkpt lat="59.3047801" lon="18.4873469">
        <ele>13.1151</ele>
        <time>2011-05-22T08:54:48Z</time>
      </trkpt>
      <trkpt lat="59.3047982" lon="18.4869883">
        <ele>14.557</ele>
        <time>2011-05-22T08:54:52Z</time>
      </trkpt>
      <trkpt lat="59.3048309" lon="18.4861718">
        <ele>13.1151</ele>
        <time>2011-05-22T08:55:00Z</time>
      </trkpt>
      <trkpt lat="59.3048664" lon="18.485418">
        <ele>10.7118</ele>
        <time>2011-05-22T08:55:07Z</time>
      </trkpt>
      <trkpt lat="59.3048808" lon="18.4852393">
        <ele>10.2312</ele>
        <time>2011-05-22T08:55:09Z</time>
      </trkpt>
      <trkpt lat="59.3048603" lon="18.484894">
        <ele>9.75061</ele>
        <time>2011-05-22T08:55:14Z</time>
      </trkpt>
      <trkpt lat="59.3049077" lon="18.4846604">
        <ele>9.2699</ele>
        <time>2011-05-22T08:55:17Z</time>
      </trkpt>
      <trkpt lat="59.3049901" lon="18.4840833">
        <ele>9.2699</ele>
        <time>2011-05-22T08:55:24Z</time>
      </trkpt>
      <trkpt lat="59.3049935" lon="18.4839076">
        <ele>9.2699</ele>
        <time>2011-05-22T08:55:26Z</time>
      </trkpt>
      <trkpt lat="59.3049791" lon="18.4837352">
        <ele>8.78918</ele>
        <time>2011-05-22T08:55:28Z</time>
      </trkpt>
      <trkpt lat="59.3048806" lon="18.4830307">
        <ele>7.34717</ele>
        <time>2011-05-22T08:55:36Z</time>
      </trkpt>
      <trkpt lat="59.3049246" lon="18.4825722">
        <ele>8.30859</ele>
        <time>2011-05-22T08:55:42Z</time>
      </trkpt>
      <trkpt lat="59.3050489" lon="18.482125">
        <ele>10.2312</ele>
        <time>2011-05-22T08:55:50Z</time>
      </trkpt>
      <trkpt lat="59.3051496" lon="18.4815767">
        <ele>12.1538</ele>
        <time>2011-05-22T08:55:59Z</time>
      </trkpt>
      <trkpt lat="59.305208" lon="18.4811488">
        <ele>12.1538</ele>
        <time>2011-05-22T08:56:05Z</time>
      </trkpt>
      <trkpt lat="59.3052713" lon="18.4805559">
        <ele>9.75061</ele>
        <time>2011-05-22T08:56:12Z</time>
      </trkpt>
      <trkpt lat="59.3053589" lon="18.4798606">
        <ele>8.30859</ele>
        <time>2011-05-22T08:56:18Z</time>
      </trkpt>
      <trkpt lat="59.3055375" lon="18.4788116">
        <ele>8.30859</ele>
        <time>2011-05-22T08:56:27Z</time>
      </trkpt>
      <trkpt lat="59.3055635" lon="18.4785706">
        <ele>8.30859</ele>
        <time>2011-05-22T08:56:29Z</time>
      </trkpt>
      <trkpt lat="59.3057464" lon="18.4778975">
        <ele>8.30859</ele>
        <time>2011-05-22T08:56:36Z</time>
      </trkpt>
      <trkpt lat="59.3059257" lon="18.4771578">
        <ele>8.78918</ele>
        <time>2011-05-22T08:56:44Z</time>
      </trkpt>
      <trkpt lat="59.3060915" lon="18.4763166">
        <ele>10.2312</ele>
        <time>2011-05-22T08:56:54Z</time>
      </trkpt>
      <trkpt lat="59.3062412" lon="18.47563">
        <ele>11.6732</ele>
        <time>2011-05-22T08:57:03Z</time>
      </trkpt>
      <trkpt lat="59.3064019" lon="18.4749506">
        <ele>12.6344</ele>
        <time>2011-05-22T08:57:13Z</time>
      </trkpt>
      <trkpt lat="59.3065451" lon="18.474378">
        <ele>13.1151</ele>
        <time>2011-05-22T08:57:22Z</time>
      </trkpt>
      <trkpt lat="59.3066701" lon="18.4739094">
        <ele>14.557</ele>
        <time>2011-05-22T08:57:30Z</time>
      </trkpt>
      <trkpt lat="59.3068149" lon="18.4735058">
        <ele>15.0377</ele>
        <time>2011-05-22T08:57:37Z</time>
      </trkpt>
      <trkpt lat="59.306983" lon="18.47321">
        <ele>16.9604</ele>
        <time>2011-05-22T08:57:44Z</time>
      </trkpt>
      <trkpt lat="59.3071138" lon="18.4729483">
        <ele>17.9218</ele>
        <time>2011-05-22T08:57:51Z</time>
      </trkpt>
      <trkpt lat="59.3072729" lon="18.4726337">
        <ele>17.9218</ele>
        <time>2011-05-22T08:57:57Z</time>
      </trkpt>
      <trkpt lat="59.3075168" lon="18.4721904">
        <ele>17.4412</ele>
        <time>2011-05-22T08:58:04Z</time>
      </trkpt>
      <trkpt lat="59.3076405" lon="18.4720011">
        <ele>15.999</ele>
        <time>2011-05-22T08:58:08Z</time>
      </trkpt>
      <trkpt lat="59.3077541" lon="18.4716744">
        <ele>15.0377</ele>
        <time>2011-05-22T08:58:14Z</time>
      </trkpt>
      <trkpt lat="59.3078541" lon="18.4715661">
        <ele>14.557</ele>
        <time>2011-05-22T08:58:18Z</time>
      </trkpt>
      <trkpt lat="59.3079862" lon="18.471479">
        <ele>13.1151</ele>
        <time>2011-05-22T08:58:22Z</time>
      </trkpt>
      <trkpt lat="59.3082878" lon="18.4710331">
        <ele>11.1925</ele>
        <time>2011-05-22T08:58:30Z</time>
      </trkpt>
      <trkpt lat="59.3085975" lon="18.4705327">
        <ele>10.7118</ele>
        <time>2011-05-22T08:58:37Z</time>
      </trkpt>
      <trkpt lat="59.3088493" lon="18.4700512">
        <ele>12.6344</ele>
        <time>2011-05-22T08:58:44Z</time>
      </trkpt>
      <trkpt lat="59.3091948" lon="18.4694265">
        <ele>15.0377</ele>
        <time>2011-05-22T08:58:54Z</time>
      </trkpt>
      <trkpt lat="59.309352" lon="18.4691722">
        <ele>15.0377</ele>
        <time>2011-05-22T08:58:59Z</time>
      </trkpt>
      <trkpt lat="59.3094159" lon="18.4691235">
        <ele>14.0764</ele>
        <time>2011-05-22T08:59:04Z</time>
      </trkpt>
      <trkpt lat="59.3094201" lon="18.4691578">
        <ele>12.6344</ele>
        <time>2011-05-22T08:59:10Z</time>
      </trkpt>
      <trkpt lat="59.3094743" lon="18.4692817">
        <ele>12.1538</ele>
        <time>2011-05-22T08:59:17Z</time>
      </trkpt>
      <trkpt lat="59.3094963" lon="18.4693242">
        <ele>12.1538</ele>
        <time>2011-05-22T08:59:23Z</time>
      </trkpt>
      <trkpt lat="59.3095496" lon="18.4693707">
        <ele>11.1925</ele>
        <time>2011-05-22T08:59:28Z</time>
      </trkpt>
      <trkpt lat="59.3096424" lon="18.4692527">
        <ele>11.6732</ele>
        <time>2011-05-22T08:59:34Z</time>
      </trkpt>
      <trkpt lat="59.3097319" lon="18.4690842">
        <ele>12.1538</ele>
        <time>2011-05-22T08:59:40Z</time>
      </trkpt>
      <trkpt lat="59.3098205" lon="18.4690838">
        <ele>12.1538</ele>
        <time>2011-05-22T08:59:44Z</time>
      </trkpt>
      <trkpt lat="59.3099866" lon="18.4693697">
        <ele>12.1538</ele>
        <time>2011-05-22T08:59:52Z</time>
      </trkpt>
      <trkpt lat="59.3101316" lon="18.4696234">
        <ele>13.1151</ele>
        <time>2011-05-22T08:59:59Z</time>
      </trkpt>
      <trkpt lat="59.3102173" lon="18.4699337">
        <ele>13.1151</ele>
        <time>2011-05-22T09:00:06Z</time>
      </trkpt>
      <trkpt lat="59.3102494" lon="18.4703134">
        <ele>13.1151</ele>
        <time>2011-05-22T09:00:13Z</time>
      </trkpt>
      <trkpt lat="59.310251" lon="18.4703695">
        <ele>13.1151</ele>
        <time>2011-05-22T09:00:17Z</time>
      </trkpt>
      <trkpt lat="59.3102344" lon="18.4703716">
        <ele>15.5184</ele>
        <time>2011-05-22T09:00:34Z</time>
      </trkpt>
      <trkpt lat="59.3102525" lon="18.4704177">
        <ele>17.4412</ele>
        <time>2011-05-22T09:00:58Z</time>
      </trkpt>
      <trkpt lat="59.3102449" lon="18.470514">
        <ele>17.9218</ele>
        <time>2011-05-22T09:01:04Z</time>
      </trkpt>
      <trkpt lat="59.3102654" lon="18.4707383">
        <ele>17.4412</ele>
        <time>2011-05-22T09:01:10Z</time>
      </trkpt>
      <trkpt lat="59.3103145" lon="18.4712028">
        <ele>18.4023</ele>
        <time>2011-05-22T09:01:19Z</time>
      </trkpt>
      <trkpt lat="59.3103692" lon="18.4716447">
        <ele>20.325</ele>
        <time>2011-05-22T09:01:27Z</time>
      </trkpt>
      <trkpt lat="59.3104369" lon="18.4719976">
        <ele>21.767</ele>
        <time>2011-05-22T09:01:34Z</time>
      </trkpt>
      <trkpt lat="59.3105183" lon="18.4722882">
        <ele>23.6896</ele>
        <time>2011-05-22T09:01:41Z</time>
      </trkpt>
      <trkpt lat="59.3106175" lon="18.4725066">
        <ele>24.651</ele>
        <time>2011-05-22T09:01:47Z</time>
      </trkpt>
      <trkpt lat="59.3108073" lon="18.4727644">
        <ele>27.0543</ele>
        <time>2011-05-22T09:01:56Z</time>
      </trkpt>
      <trkpt lat="59.3109736" lon="18.4729537">
        <ele>28.4962</ele>
        <time>2011-05-22T09:02:03Z</time>
      </trkpt>
      <trkpt lat="59.3111295" lon="18.4731511">
        <ele>30.8995</ele>
        <time>2011-05-22T09:02:10Z</time>
      </trkpt>
      <trkpt lat="59.3113191" lon="18.4733753">
        <ele>34.2642</ele>
        <time>2011-05-22T09:02:18Z</time>
      </trkpt>
      <trkpt lat="59.3114749" lon="18.4734795">
        <ele>36.6675</ele>
        <time>2011-05-22T09:02:24Z</time>
      </trkpt>
      <trkpt lat="59.3116494" lon="18.4735654">
        <ele>39.0707</ele>
        <time>2011-05-22T09:02:30Z</time>
      </trkpt>
      <trkpt lat="59.3118258" lon="18.4736556">
        <ele>40.5128</ele>
        <time>2011-05-22T09:02:36Z</time>
      </trkpt>
      <trkpt lat="59.3120273" lon="18.473833">
        <ele>40.5128</ele>
        <time>2011-05-22T09:02:44Z</time>
      </trkpt>
      <trkpt lat="59.3121758" lon="18.4740254">
        <ele>38.1094</ele>
        <time>2011-05-22T09:02:51Z</time>
      </trkpt>
      <trkpt lat="59.3123432" lon="18.4744104">
        <ele>35.2255</ele>
        <time>2011-05-22T09:03:00Z</time>
      </trkpt>
      <trkpt lat="59.3124723" lon="18.4747745">
        <ele>33.7834</ele>
        <time>2011-05-22T09:03:07Z</time>
      </trkpt>
      <trkpt lat="59.3126032" lon="18.475136">
        <ele>34.2642</ele>
        <time>2011-05-22T09:03:14Z</time>
      </trkpt>
      <trkpt lat="59.3127053" lon="18.4755486">
        <ele>35.7061</ele>
        <time>2011-05-22T09:03:21Z</time>
      </trkpt>
      <trkpt lat="59.3127932" lon="18.4759897">
        <ele>35.2255</ele>
        <time>2011-05-22T09:03:28Z</time>
      </trkpt>
      <trkpt lat="59.3128808" lon="18.476423">
        <ele>34.7449</ele>
        <time>2011-05-22T09:03:35Z</time>
      </trkpt>
      <trkpt lat="59.3129784" lon="18.4769005">
        <ele>34.2642</ele>
        <time>2011-05-22T09:03:43Z</time>
      </trkpt>
      <trkpt lat="59.3130803" lon="18.4773657">
        <ele>34.7449</ele>
        <time>2011-05-22T09:03:51Z</time>
      </trkpt>
      <trkpt lat="59.3132005" lon="18.4778551">
        <ele>35.2255</ele>
        <time>2011-05-22T09:04:00Z</time>
      </trkpt>
      <trkpt lat="59.3133248" lon="18.4783329">
        <ele>35.7061</ele>
        <time>2011-05-22T09:04:08Z</time>
      </trkpt>
      <trkpt lat="59.3134829" lon="18.4787035">
        <ele>35.7061</ele>
        <time>2011-05-22T09:04:15Z</time>
      </trkpt>
      <trkpt lat="59.3137214" lon="18.4790243">
        <ele>35.2255</ele>
        <time>2011-05-22T09:04:23Z</time>
      </trkpt>
      <trkpt lat="59.3139515" lon="18.4793658">
        <ele>35.2255</ele>
        <time>2011-05-22T09:04:32Z</time>
      </trkpt>
      <trkpt lat="59.3141449" lon="18.4796243">
        <ele>35.2255</ele>
        <time>2011-05-22T09:04:40Z</time>
      </trkpt>
      <trkpt lat="59.3141707" lon="18.4797302">
        <ele>34.7449</ele>
        <time>2011-05-22T09:04:42Z</time>
      </trkpt>
      <trkpt lat="59.3140996" lon="18.4800201">
        <ele>33.7834</ele>
        <time>2011-05-22T09:04:47Z</time>
      </trkpt>
      <trkpt lat="59.3140354" lon="18.4804773">
        <ele>31.8607</ele>
        <time>2011-05-22T09:04:54Z</time>
      </trkpt>
      <trkpt lat="59.3140157" lon="18.4809166">
        <ele>30.8995</ele>
        <time>2011-05-22T09:05:01Z</time>
      </trkpt>
      <trkpt lat="59.3140308" lon="18.4812574">
        <ele>30.4188</ele>
        <time>2011-05-22T09:05:06Z</time>
      </trkpt>
      <trkpt lat="59.3141473" lon="18.4816321">
        <ele>31.8607</ele>
        <time>2011-05-22T09:05:12Z</time>
      </trkpt>
      <trkpt lat="59.3141785" lon="18.4819833">
        <ele>32.3416</ele>
        <time>2011-05-22T09:05:17Z</time>
      </trkpt>
      <trkpt lat="59.3141872" lon="18.4822946">
        <ele>32.3416</ele>
        <time>2011-05-22T09:05:22Z</time>
      </trkpt>
      <trkpt lat="59.3142325" lon="18.4826703">
        <ele>29.9381</ele>
        <time>2011-05-22T09:05:28Z</time>
      </trkpt>
      <trkpt lat="59.3142648" lon="18.4829806">
        <ele>28.0155</ele>
        <time>2011-05-22T09:05:32Z</time>
      </trkpt>
      <trkpt lat="59.3143172" lon="18.4833605">
        <ele>26.0929</ele>
        <time>2011-05-22T09:05:37Z</time>
      </trkpt>
      <trkpt lat="59.314378" lon="18.4834798">
        <ele>25.1317</ele>
        <time>2011-05-22T09:05:39Z</time>
      </trkpt>
      <trkpt lat="59.3145581" lon="18.4837206">
        <ele>23.6896</ele>
        <time>2011-05-22T09:05:44Z</time>
      </trkpt>
      <trkpt lat="59.3148012" lon="18.4839724">
        <ele>21.767</ele>
        <time>2011-05-22T09:05:49Z</time>
      </trkpt>
      <trkpt lat="59.3152156" lon="18.484418">
        <ele>20.325</ele>
        <time>2011-05-22T09:05:57Z</time>
      </trkpt>
      <trkpt lat="59.3155104" lon="18.484723">
        <ele>20.325</ele>
        <time>2011-05-22T09:06:04Z</time>
      </trkpt>
      <trkpt lat="59.3157269" lon="18.4849701">
        <ele>20.8057</ele>
        <time>2011-05-22T09:06:10Z</time>
      </trkpt>
      <trkpt lat="59.3158578" lon="18.4851445">
        <ele>21.767</ele>
        <time>2011-05-22T09:06:14Z</time>
      </trkpt>
      <trkpt lat="59.3160054" lon="18.4854481">
        <ele>22.7283</ele>
        <time>2011-05-22T09:06:20Z</time>
      </trkpt>
      <trkpt lat="59.316263" lon="18.485797">
        <ele>22.7283</ele>
        <time>2011-05-22T09:06:28Z</time>
      </trkpt>
      <trkpt lat="59.3164692" lon="18.4859195">
        <ele>23.6896</ele>
        <time>2011-05-22T09:06:34Z</time>
      </trkpt>
      <trkpt lat="59.3165841" lon="18.4859222">
        <ele>25.1317</ele>
        <time>2011-05-22T09:06:39Z</time>
      </trkpt>
      <trkpt lat="59.3167278" lon="18.4858829">
        <ele>28.9769</ele>
        <time>2011-05-22T09:06:46Z</time>
      </trkpt>
      <trkpt lat="59.3168907" lon="18.4858264">
        <ele>31.8607</ele>
        <time>2011-05-22T09:06:52Z</time>
      </trkpt>
      <trkpt lat="59.3170983" lon="18.4857092">
        <ele>31.8607</ele>
        <time>2011-05-22T09:06:59Z</time>
      </trkpt>
      <trkpt lat="59.3172901" lon="18.4857015">
        <ele>32.8223</ele>
        <time>2011-05-22T09:07:05Z</time>
      </trkpt>
      <trkpt lat="59.3175519" lon="18.4857649">
        <ele>31.8607</ele>
        <time>2011-05-22T09:07:12Z</time>
      </trkpt>
      <trkpt lat="59.3178658" lon="18.4858938">
        <ele>31.3801</ele>
        <time>2011-05-22T09:07:20Z</time>
      </trkpt>
      <trkpt lat="59.318151" lon="18.4860109">
        <ele>33.3029</ele>
        <time>2011-05-22T09:07:28Z</time>
      </trkpt>
      <trkpt lat="59.318448" lon="18.4859279">
        <ele>33.3029</ele>
        <time>2011-05-22T09:07:35Z</time>
      </trkpt>
      <trkpt lat="59.3186126" lon="18.4858228">
        <ele>33.3029</ele>
        <time>2011-05-22T09:07:39Z</time>
      </trkpt>
      <trkpt lat="59.3187909" lon="18.4857128">
        <ele>33.3029</ele>
        <time>2011-05-22T09:07:45Z</time>
      </trkpt>
      <trkpt lat="59.3188944" lon="18.485732">
        <ele>33.3029</ele>
        <time>2011-05-22T09:07:49Z</time>
      </trkpt>
      <trkpt lat="59.319053" lon="18.4859911">
        <ele>31.8607</ele>
        <time>2011-05-22T09:07:56Z</time>
      </trkpt>
      <trkpt lat="59.3191513" lon="18.4862782">
        <ele>29.9381</ele>
        <time>2011-05-22T09:08:02Z</time>
      </trkpt>
      <trkpt lat="59.3192017" lon="18.486608">
        <ele>29.9381</ele>
        <time>2011-05-22T09:08:07Z</time>
      </trkpt>
      <trkpt lat="59.3192249" lon="18.4869717">
        <ele>28.9769</ele>
        <time>2011-05-22T09:08:13Z</time>
      </trkpt>
      <trkpt lat="59.319299" lon="18.4873411">
        <ele>26.5736</ele>
        <time>2011-05-22T09:08:20Z</time>
      </trkpt>
      <trkpt lat="59.3194083" lon="18.4875393">
        <ele>25.6123</ele>
        <time>2011-05-22T09:08:25Z</time>
      </trkpt>
      <trkpt lat="59.3195063" lon="18.4874756">
        <ele>25.1317</ele>
        <time>2011-05-22T09:08:29Z</time>
      </trkpt>
    </trkseg>
  </trk>
</gpx>